Time;durP1;ratioP1;P1;durP2;ratioP2;P2;SDS_P1;SDS_P2;PMS_P1;PMS_P2;Temp;Humidity;BMP_temperature;BMP_pressure;BME280_temperature;BME280_humidity;BME280_pressure;Samples;Min_cycle;Max_cycle;Signal;HPM_P1;HPM_P2
2022/09/03 00:01:30;;;;;;;4.68;1.35;;;17.90;99.90;;;;;;5024346;28;20115;-54
2022/09/03 00:04:10;;;;;;;4.05;1.35;;;17.40;99.90;;;;;;5020933;28;20037;-55
2022/09/03 00:06:44;;;;;;;4.85;1.33;;;17.20;99.90;;;;;;4987620;28;20062;-54
2022/09/03 00:09:28;;;;;;;4.47;1.48;;;17.00;99.90;;;;;;5026007;28;20030;-51
2022/09/03 00:12:01;;;;;;;5.47;1.70;;;17.30;99.90;;;;;;5017280;28;20399;-54
2022/09/03 00:14:41;;;;;;;4.28;1.67;;;17.30;99.90;;;;;;5022709;28;20073;-53
2022/09/03 00:17:15;;;;;;;4.28;1.50;;;18.00;99.90;;;;;;5017743;28;20136;-54
2022/09/03 00:20:10;;;;;;;4.93;1.45;;;17.50;99.90;;;;;;5007101;28;20042;-55
2022/09/03 00:22:40;;;;;;;7.43;1.92;;;18.00;99.90;;;;;;4998500;28;20049;-53
2022/09/03 00:25:25;;;;;;;5.25;1.38;;;17.00;99.90;;;;;;5025626;28;20116;-54
2022/09/03 00:27:56;;;;;;;;;;;17.20;99.90;;;;;;5005131;28;20124;-55
2022/09/03 00:30:26;;;;;;;5.65;1.70;;;16.50;99.90;;;;;;5026826;28;20197;-54
2022/09/03 00:33:17;;;;;;;4.03;1.30;;;17.20;99.90;;;;;;5022992;28;20038;-54
2022/09/03 00:36:01;;;;;;;6.38;1.83;;;16.90;99.90;;;;;;5020909;28;20057;-51
2022/09/03 00:38:33;;;;;;;4.45;1.27;;;16.30;99.90;;;;;;5004661;28;20030;-51
2022/09/03 00:41:21;;;;;;;6.05;1.42;;;16.80;99.90;;;;;;5022277;28;20041;-52
2022/09/03 00:44:25;;;;;;;6.28;1.50;;;16.40;99.90;;;;;;5008002;28;20076;-52
2022/09/03 00:47:12;;;;;;;5.47;1.30;;;17.00;99.90;;;;;;5022509;28;20037;-53
2022/09/03 00:50:21;;;;;;;4.72;1.40;;;16.80;99.90;;;;;;5015558;28;20046;-51
2022/09/03 00:53:06;;;;;;;4.30;1.20;;;;;;;;;;4991517;28;20133;-51
2022/09/03 00:56:12;;;;;;;4.00;1.67;;;16.80;99.90;;;;;;5018766;28;20107;-51
2022/09/03 00:59:07;;;;;;;6.50;1.40;;;17.30;99.90;;;;;;5002966;28;20056;-55
2022/09/03 01:02:08;;;;;;;5.90;1.50;;;16.90;99.90;;;;;;5018103;28;20083;-53
2022/09/03 01:04:51;;;;;;;5.32;1.50;;;17.00;99.90;;;;;;5027573;28;20041;-54
2022/09/03 01:07:40;;;;;;;4.45;1.27;;;16.60;99.90;;;;;;5020162;28;20388;-53
2022/09/03 01:10:33;;;;;;;6.10;1.40;;;16.70;99.90;;;;;;5019541;28;20049;-55
2022/09/03 01:13:29;;;;;;;4.95;1.20;;;16.70;99.90;;;;;;5002259;28;20111;-53
2022/09/03 01:16:16;;;;;;;4.38;1.30;;;16.40;99.90;;;;;;5009553;28;20045;-55
2022/09/03 01:19:27;;;;;;;4.18;1.48;;;16.80;99.90;;;;;;4999470;28;20072;-53
2022/09/03 01:22:24;;;;;;;6.35;1.65;;;16.40;99.90;;;;;;4926685;29;20048;-54
2022/09/03 01:25:10;;;;;;;6.50;1.60;;;16.60;99.90;;;;;;5014302;28;20399;-54
2022/09/03 01:28:00;;;;;;;6.32;1.50;;;17.40;99.90;;;;;;5020543;28;20135;-54
2022/09/03 01:30:38;;;;;;;4.45;1.30;;;16.60;99.90;;;;;;5025768;28;20552;-55
2022/09/03 01:33:25;;;;;;;4.00;1.33;;;16.80;99.90;;;;;;5021553;28;20049;-56
2022/09/03 01:36:34;;;;;;;6.93;1.38;;;16.40;99.90;;;;;;5020189;28;20523;-55
2022/09/03 01:39:12;;;;;;;3.78;1.30;;;17.10;99.90;;;;;;4967526;28;20041;-55
2022/09/03 01:42:20;;;;;;;5.65;1.25;;;16.90;99.90;;;;;;5023545;28;20084;-55
2022/09/03 01:45:15;;;;;;;4.95;1.50;;;17.10;99.90;;;;;;5030616;28;20128;-55
2022/09/03 01:47:53;;;;;;;6.13;1.50;;;17.30;99.90;;;;;;5023508;28;20033;-53
2022/09/03 01:50:56;;;;;;;6.57;1.50;;;16.60;99.90;;;;;;5020407;28;20037;-53
2022/09/03 01:53:51;;;;;;;4.88;1.23;;;16.60;99.90;;;;;;5029824;28;20499;-54
2022/09/03 01:56:56;;;;;;;3.65;1.20;;;16.70;99.90;;;;;;5027555;28;20068;-55
2022/09/03 01:59:28;;;;;;;7.03;1.15;;;16.20;99.90;;;;;;5009198;28;20049;-51
2022/09/03 02:02:18;;;;;;;3.17;1.10;;;16.00;99.90;;;;;;5012061;28;20052;-54
2022/09/03 02:05:01;;;;;;;4.00;1.40;;;17.30;99.90;;;;;;5027198;28;20037;-51
2022/09/03 02:07:35;;;;;;;4.80;1.38;;;16.20;99.90;;;;;;5016387;28;20044;-51
2022/09/03 02:10:08;;;;;;;;;;;16.10;99.90;;;;;;5020660;28;20080;-51
2022/09/03 02:12:36;;;;;;;4.15;1.40;;;16.20;99.90;;;;;;5020429;28;20306;-50
2022/09/03 02:15:13;;;;;;;4.05;1.30;;;16.80;99.90;;;;;;5022855;28;20041;-55
2022/09/03 02:17:44;;;;;;;5.75;1.40;;;16.60;99.90;;;;;;5024295;28;20056;-55
2022/09/03 02:20:18;;;;;;;6.45;1.40;;;16.60;99.90;;;;;;5015584;28;20046;-54
2022/09/03 02:22:48;;;;;;;3.17;1.20;;;16.60;99.90;;;;;;5013175;28;20041;-50
2022/09/03 02:25:14;;;;;;;4.20;1.30;;;15.90;99.90;;;;;;5029704;28;20550;-54
2022/09/03 02:27:41;;;;;;;5.22;1.20;;;16.10;99.90;;;;;;5005761;28;20056;-54
2022/09/03 02:30:10;;;;;;;5.68;1.20;;;16.60;99.90;;;;;;5012176;28;20508;-55
2022/09/03 02:32:39;;;;;;;3.95;1.20;;;16.00;99.90;;;;;;5023686;28;20046;-54
2022/09/03 02:35:08;;;;;;;4.53;1.20;;;16.00;99.90;;;;;;5023605;28;20080;-55
2022/09/03 02:37:33;;;;;;;3.92;1.30;;;16.20;99.90;;;;;;5022400;28;20522;-53
2022/09/03 02:39:59;;;;;;;2.97;1.10;;;15.70;99.90;;;;;;5013579;28;20057;-55
2022/09/03 02:42:27;;;;;;;6.82;1.20;;;17.00;99.90;;;;;;5022723;28;20045;-56
2022/09/03 02:45:02;;;;;;;5.15;1.40;;;15.50;99.90;;;;;;5013971;28;20041;-56
2022/09/03 02:47:32;;;;;;;6.95;1.60;;;15.80;99.90;;;;;;5020642;28;20502;-56
2022/09/03 02:49:57;;;;;;;3.70;1.13;;;16.50;99.90;;;;;;5024737;28;20041;-55
2022/09/03 02:52:23;;;;;;;4.18;1.27;;;16.80;99.90;;;;;;5021880;28;20095;-56
2022/09/03 02:54:49;;;;;;;5.47;1.20;;;16.90;99.90;;;;;;5012962;28;20037;-55
2022/09/03 02:57:16;;;;;;;3.60;1.20;;;16.90;99.90;;;;;;5018009;28;20087;-55
2022/09/03 02:59:44;;;;;;;4.70;1.55;;;16.90;99.90;;;;;;4998088;28;20088;-56
2022/09/03 03:02:11;;;;;;;4.78;1.25;;;15.80;99.90;;;;;;5012145;28;20060;-55
2022/09/03 03:04:38;;;;;;;4.00;1.25;;;16.00;99.90;;;;;;5019855;28;20030;-53
2022/09/03 03:07:04;;;;;;;3.90;1.30;;;15.90;99.90;;;;;;5025152;28;20069;-53
2022/09/03 03:09:30;;;;;;;6.45;1.20;;;16.20;99.90;;;;;;5004523;28;20038;-55
2022/09/03 03:11:56;;;;;;;4.70;1.30;;;15.80;99.90;;;;;;5022309;28;20083;-55
2022/09/03 03:14:22;;;;;;;4.68;1.10;;;15.90;99.90;;;;;;5014847;28;20033;-54
2022/09/03 03:16:51;;;;;;;4.82;1.42;;;16.90;99.90;;;;;;5001148;28;20041;-55
2022/09/03 03:19:20;;;;;;;3.78;1.25;;;16.40;99.90;;;;;;5029219;28;20044;-52
2022/09/03 03:21:48;;;;;;;2.67;1.02;;;16.40;99.90;;;;;;5008787;28;20045;-55
2022/09/03 03:24:14;;;;;;;4.28;1.13;;;15.80;99.90;;;;;;5018955;28;20514;-53
2022/09/03 03:26:40;;;;;;;4.15;1.35;;;17.40;99.90;;;;;;5024748;28;20050;-54
2022/09/03 03:29:05;;;;;;;6.22;1.38;;;16.70;99.90;;;;;;5017537;28;20037;-54
2022/09/03 03:31:35;;;;;;;3.70;1.30;;;16.90;99.90;;;;;;5024925;28;20298;-51
2022/09/03 03:34:04;;;;;;;3.90;1.30;;;15.90;99.90;;;;;;5016437;28;20038;-55
2022/09/03 03:36:32;;;;;;;5.22;1.45;;;16.40;99.90;;;;;;5020118;28;20505;-55
2022/09/03 03:38:59;;;;;;;4.00;1.20;;;15.90;99.90;;;;;;5024463;28;20057;-55
2022/09/03 03:41:30;;;;;;;2.83;1.00;;;15.60;99.90;;;;;;5010042;28;20069;-55
2022/09/03 03:43:58;;;;;;;2.67;1.10;;;15.90;99.90;;;;;;5019883;28;20108;-56
2022/09/03 03:46:24;;;;;;;4.15;1.27;;;15.70;99.90;;;;;;5005977;28;20033;-55
2022/09/03 03:48:51;;;;;;;3.88;1.40;;;16.20;99.90;;;;;;5020763;28;20036;-55
2022/09/03 03:51:17;;;;;;;3.80;1.30;;;16.10;99.90;;;;;;5018490;28;20176;-55
2022/09/03 03:53:44;;;;;;;5.32;1.42;;;16.70;99.90;;;;;;5025496;28;20475;-54
2022/09/03 03:56:13;;;;;;;5.03;1.40;;;15.90;99.90;;;;;;5018728;28;20041;-55
2022/09/03 03:58:43;;;;;;;5.65;1.42;;;16.30;99.90;;;;;;5012667;28;20144;-55
2022/09/03 04:01:16;;;;;;;3.70;1.20;;;15.60;99.90;;;;;;5024707;28;20041;-53
2022/09/03 04:03:43;;;;;;;3.40;1.17;;;16.00;99.90;;;;;;5018908;28;20049;-54
2022/09/03 04:06:11;;;;;;;6.78;1.60;;;15.90;99.90;;;;;;5017928;28;20109;-54
2022/09/03 04:08:42;;;;;;;4.43;1.27;;;15.50;99.90;;;;;;5018504;28;20038;-55
2022/09/03 04:11:13;;;;;;;4.47;1.23;;;15.70;99.90;;;;;;5004260;28;20100;-55
2022/09/03 04:13:41;;;;;;;4.97;1.40;;;15.80;99.90;;;;;;5021804;28;20559;-53
2022/09/03 04:16:12;;;;;;;4.78;1.20;;;15.90;99.90;;;;;;5020769;28;20037;-56
2022/09/03 04:18:38;;;;;;;4.38;1.20;;;16.10;99.90;;;;;;5028643;28;20041;-54
2022/09/03 04:21:07;;;;;;;7.03;1.50;;;16.60;99.90;;;;;;5006272;28;20492;-52
2022/09/03 04:23:34;;;;;;;4.63;1.15;;;16.60;99.90;;;;;;5020587;28;20063;-54
2022/09/03 04:26:00;;;;;;;3.20;1.10;;;15.80;99.90;;;;;;5023212;28;20037;-54
2022/09/03 04:28:27;;;;;;;4.20;1.20;;;15.80;99.90;;;;;;5027275;28;20099;-54
2022/09/03 04:30:53;;;;;;;5.03;1.55;;;16.70;99.90;;;;;;5023356;28;20474;-56
2022/09/03 04:33:19;;;;;;;4.80;1.40;;;;;;;;;;5042126;22;20495;-54
2022/09/03 04:35:45;;;;;;;3.75;1.38;;;;;;;;;;5024618;28;20033;-53
2022/09/03 04:38:11;;;;;;;4.93;1.27;;;16.00;99.90;;;;;;5011556;28;20128;-53
2022/09/03 04:40:37;;;;;;;3.80;1.20;;;;;;;;;;5007581;28;20117;-50
2022/09/03 04:43:05;;;;;;;4.50;1.50;;;16.00;99.90;;;;;;4999428;28;20054;-52
2022/09/03 04:45:34;;;;;;;3.88;1.45;;;;;;;;;;5024732;28;20041;-53
2022/09/03 04:48:04;;;;;;;4.00;1.50;;;;;;;;;;4997992;28;20124;-51
2022/09/03 04:50:31;;;;;;;5.07;1.52;;;;;;;;;;5016170;28;20107;-54
2022/09/03 04:53:01;;;;;;;4.88;1.40;;;;;;;;;;5021184;28;20049;-53
2022/09/03 04:55:27;;;;;;;5.25;1.40;;;;;;;;;;5021813;28;20099;-53
2022/09/03 04:57:54;;;;;;;5.18;1.33;;;;;;;;;;5013762;28;20042;-53
2022/09/03 05:00:20;;;;;;;5.18;1.40;;;;;;;;;;5017787;28;20041;-51
2022/09/03 05:02:48;;;;;;;4.70;1.42;;;16.00;99.90;;;;;;4999105;28;20045;-53
2022/09/03 05:05:14;;;;;;;5.28;1.45;;;;;;;;;;5019456;28;20510;-53
2022/09/03 05:07:40;;;;;;;5.30;1.40;;;;;;;;;;5020135;28;20034;-52
2022/09/03 05:10:07;;;;;;;4.60;1.60;;;;;;;;;;5012723;28;20037;-53
2022/09/03 05:12:33;;;;;;;5.03;1.50;;;;;;;;;;5003636;28;20037;-53
2022/09/03 05:14:59;;;;;;;4.53;1.40;;;;;;;;;;4997427;28;20471;-54
2022/09/03 05:17:25;;;;;;;5.32;1.67;;;;;;;;;;5019787;28;20038;-54
2022/09/03 05:19:51;;;;;;;5.28;1.30;;;;;;;;;;5030246;28;20135;-54
2022/09/03 05:22:20;;;;;;;5.07;1.50;;;15.70;99.90;;;;;;5024243;28;20089;-53
2022/09/03 05:24:48;;;;;;;6.13;1.58;;;15.80;99.90;;;;;;5014724;28;20072;-53
2022/09/03 05:27:15;;;;;;;6.20;1.60;;;;;;;;;;5021896;28;20034;-52
2022/09/03 05:29:42;;;;;;;4.43;1.60;;;;;;;;;;5018800;28;20120;-54
2022/09/03 05:32:08;;;;;;;5.22;1.30;;;15.80;99.90;;;;;;5008703;28;20092;-51
2022/09/03 05:34:34;;;;;;;4.10;1.60;;;;;;;;;;5008555;28;20042;-53
2022/09/03 05:37:03;;;;;;;5.32;1.48;;;;;;;;;;5000304;28;20065;-54
2022/09/03 05:39:29;;;;;;;5.40;1.67;;;;;;;;;;4995933;28;20050;-52
2022/09/03 05:42:05;;;;;;;5.45;1.70;;;;;;;;;;5000042;28;20034;-54
2022/09/03 05:44:31;;;;;;;4.43;1.60;;;;;;;;;;5011687;28;20145;-50
2022/09/03 05:46:57;;;;;;;3.88;1.50;;;;;;;;;;5013485;28;20061;-51
2022/09/03 05:49:23;;;;;;;5.10;1.73;;;;;;;;;;5019391;28;20491;-53
2022/09/03 05:51:48;;;;;;;7.07;1.60;;;15.50;99.90;;;;;;5017915;28;20036;-50
2022/09/03 05:54:14;;;;;;;6.00;1.50;;;15.50;99.90;;;;;;5017484;28;20034;-51
2022/09/03 05:56:41;;;;;;;6.80;1.90;;;;;;;;;;5011787;28;20034;-50
2022/09/03 05:59:10;;;;;;;4.53;1.58;;;;;;;;;;5013681;28;20125;-51
2022/09/03 06:01:41;;;;;;;6.60;1.77;;;;;;;;;;5015812;28;20082;-53
2022/09/03 06:04:08;;;;;;;6.00;1.50;;;;;;;;;;5023780;28;20037;-50
2022/09/03 06:06:36;;;;;;;5.90;1.63;;;15.40;99.90;;;;;;4999054;28;20049;-50
2022/09/03 06:09:13;;;;;;;7.03;2.40;;;15.30;99.90;;;;;;5026870;28;20109;-50
2022/09/03 06:11:45;;;;;;;6.15;1.88;;;15.50;99.90;;;;;;5016992;28;20037;-49
2022/09/03 06:14:12;;;;;;;4.57;1.70;;;;;;;;;;5027936;28;20037;-50
2022/09/03 06:16:42;;;;;;;4.60;1.70;;;;;;;;;;5013549;28;20042;-49
2022/09/03 06:19:09;;;;;;;7.40;2.00;;;;;;;;;;5010353;28;20117;-51
2022/09/03 06:21:37;;;;;;;7.18;3.10;;;;;;;;;;5003205;28;20045;-51
2022/09/03 06:24:03;;;;;;;5.05;2.00;;;;;;;;;;4985564;28;20930;-50
2022/09/03 06:26:32;;;;;;;10.05;2.83;;;;;;;;;;5013778;28;20037;-50
2022/09/03 06:28:58;;;;;;;6.82;2.40;;;;;;;;;;5001899;28;20161;-53
2022/09/03 06:31:25;;;;;;;5.70;1.90;;;;;;;;;;5002538;28;20036;-50
2022/09/03 06:33:53;;;;;;;6.43;2.08;;;15.60;99.90;;;;;;5013788;28;20087;-50
2022/09/03 06:36:21;;;;;;;6.30;2.22;;;;;;;;;;5020986;28;20407;-51
2022/09/03 06:38:47;;;;;;;6.60;1.90;;;;;;;;;;5011335;28;20085;-51
2022/09/03 06:41:20;;;;;;;4.25;1.52;;;;;;;;;;5015980;28;20042;-52
2022/09/03 06:43:49;;;;;;;6.32;2.03;;;;;;;;;;5012877;28;20042;-50
2022/09/03 06:46:20;;;;;;;7.18;2.13;;;;;;;;;;5015395;28;20041;-53
2022/09/03 06:48:50;;;;;;;6.45;1.75;;;;;;;;;;5015527;28;20029;-53
2022/09/03 06:51:23;;;;;;;6.05;1.80;;;;;;;;;;5001446;28;20316;-51
2022/09/03 06:53:52;;;;;;;4.75;1.90;;;;;;;;;;5004456;28;20037;-51
2022/09/03 06:56:25;;;;;;;6.20;1.95;;;15.20;99.90;;;;;;5004326;28;20042;-50
2022/09/03 06:58:54;;;;;;;5.75;2.05;;;;;;;;;;5001502;28;20421;-50
2022/09/03 07:01:22;;;;;;;6.18;1.75;;;;;;;;;;5006129;28;20037;-51
2022/09/03 07:03:54;;;;;;;6.43;1.73;;;;;;;;;;5016764;28;20299;-51
2022/09/03 07:06:26;;;;;;;4.10;1.60;;;15.80;99.90;;;;;;4995453;28;20065;-53
2022/09/03 07:08:56;;;;;;;7.45;1.67;;;;;;;;;;5015136;28;20080;-54
2022/09/03 07:11:25;;;;;;;5.95;1.55;;;17.10;99.90;;;;;;4992600;28;20037;-53
2022/09/03 07:13:52;;;;;;;5.45;1.60;;;;;;;;;;5009915;28;20045;-53
2022/09/03 07:16:34;;;;;;;5.25;1.60;;;16.10;99.90;;;;;;5011561;28;20048;-53
2022/09/03 07:19:07;;;;;;;4.13;1.50;;;;;;;;;;5003500;28;20133;-53
2022/09/03 07:21:37;;;;;;;4.40;1.70;;;;;;;;;;4984806;28;20546;-53
2022/09/03 07:24:14;;;;;;;4.53;1.70;;;;;;;;;;5004876;28;20377;-52
2022/09/03 07:26:48;;;;;;;4.97;1.80;;;;;;;;;;5001662;28;20038;-53
2022/09/03 07:29:15;;;;;;;5.88;2.03;;;;;;;;;;5008979;28;20042;-54
2022/09/03 07:31:42;;;;;;;4.65;1.70;;;;;;;;;;5003250;28;20220;-53
2022/09/03 07:34:09;;;;;;;5.80;1.70;;;;;;;;;;5008329;28;20524;-53
2022/09/03 07:36:45;;;;;;;5.13;1.70;;;;;;;;;;5007075;28;20092;-52
2022/09/03 07:39:12;;;;;;;4.57;2.10;;;;;;;;;;5005271;28;20041;-51
2022/09/03 07:41:41;;;;;;;4.05;1.60;;;17.30;99.90;;;;;;4999660;28;20132;-53
2022/09/03 07:44:08;;;;;;;6.25;1.67;;;;;;;;;;5014616;28;20064;-54
2022/09/03 07:46:36;;;;;;;6.03;1.88;;;17.60;99.90;;;;;;4999562;28;20053;-53
2022/09/03 07:49:05;;;;;;;6.78;1.90;;;;;;;;;;4994976;28;20076;-54
2022/09/03 07:51:34;;;;;;;6.00;1.73;;;;;;;;;;5018599;28;20286;-54
2022/09/03 07:54:10;;;;;;;5.13;1.70;;;;;;;;;;5019094;28;20108;-53
2022/09/03 07:56:37;;;;;;;5.80;1.73;;;;;;;;;;5019491;28;20096;-54
2022/09/03 07:59:06;;;;;;;5.65;2.00;;;17.80;99.90;;;;;;5013860;28;20034;-54
2022/09/03 08:01:35;;;;;;;6.78;1.83;;;;;;;;;;5021658;28;20511;-53
2022/09/03 08:04:02;;;;;;;5.00;1.60;;;17.70;99.90;;;;;;5015478;28;20480;-53
2022/09/03 08:06:29;;;;;;;4.40;1.77;;;17.80;99.90;;;;;;5017391;28;20461;-53
2022/09/03 08:09:01;;;;;;;5.38;1.65;;;17.80;99.90;;;;;;5014364;28;20034;-53
2022/09/03 08:11:28;;;;;;;4.13;1.52;;;;;;;;;;5020992;28;20038;-54
2022/09/03 08:14:01;;;;;;;5.25;1.60;;;17.50;99.90;;;;;;5015143;28;20045;-52
2022/09/03 08:16:28;;;;;;;5.07;1.88;;;;;;;;;;5017297;28;20126;-53
2022/09/03 08:18:55;;;;;;;4.07;1.45;;;18.00;99.90;;;;;;5017533;28;20033;-51
2022/09/03 08:21:20;;;;;;;5.07;1.70;;;18.10;99.90;;;;;;5015972;28;20116;-54
2022/09/03 08:23:47;;;;;;;4.78;1.60;;;;;;;;;;5016302;28;20146;-52
2022/09/03 08:26:14;;;;;;;4.95;1.50;;;;;;;;;;5024192;28;20038;-53
2022/09/03 08:28:42;;;;;;;4.15;1.80;;;18.70;99.90;;;;;;5016193;28;20038;-53
2022/09/03 08:31:15;;;;;;;4.95;1.98;;;17.80;99.90;;;;;;5020682;28;20045;-53
2022/09/03 08:33:43;;;;;;;6.17;1.87;;;;;;;;;;5020030;28;20070;-51
2022/09/03 08:36:13;;;;;;;4.45;1.60;;;;;;;;;;5007800;28;20042;-51
2022/09/03 08:38:41;;;;;;;4.78;1.67;;;;;;;;;;5001948;28;20042;-54
2022/09/03 08:41:11;;;;;;;17.40;2.22;;;;;;;;;;5000700;28;20283;-54
2022/09/03 08:43:43;;;;;;;6.40;1.45;;;19.00;99.90;;;;;;5011762;28;20099;-53
2022/09/03 08:46:09;;;;;;;4.68;1.80;;;18.40;99.90;;;;;;5012242;28;20045;-53
2022/09/03 08:48:35;;;;;;;5.38;1.60;;;;;;;;;;4995884;28;20072;-54
2022/09/03 08:51:03;;;;;;;5.55;1.85;;;18.60;99.90;;;;;;4992815;28;20038;-54
2022/09/03 08:53:54;;;;;;;5.28;1.70;;;18.40;99.90;;;;;;5014624;28;20088;-54
2022/09/03 08:56:30;;;;;;;6.20;1.67;;;;;;;;;;5006774;28;20073;-54
2022/09/03 08:58:56;;;;;;;4.70;1.60;;;19.00;99.90;;;;;;5005107;28;20107;-53
2022/09/03 09:01:43;;;;;;;5.40;1.73;;;;;;;;;;5010699;28;20442;-54
2022/09/03 09:04:18;;;;;;;5.28;1.73;;;;;;;;;;5009748;28;20270;-54
2022/09/03 09:06:59;;;;;;;4.55;1.70;;;;;;;;;;4994097;28;20038;-55
2022/09/03 09:09:48;;;;;;;6.07;1.60;;;19.20;99.90;;;;;;5012929;28;20038;-56
2022/09/03 09:12:24;;;;;;;4.18;1.67;;;19.70;99.90;;;;;;4996179;28;20038;-55
2022/09/03 09:14:59;;;;;;;6.15;1.80;;;;;;;;;;5016948;28;20044;-54
2022/09/03 09:17:51;;;;;;;5.80;1.90;;;19.60;99.90;;;;;;5013412;28;20038;-54
2022/09/03 09:20:22;;;;;;;6.93;1.80;;;19.40;99.90;;;;;;5011194;28;20135;-54
2022/09/03 09:23:32;;;;;;;5.40;1.60;;;20.00;99.90;;;;;;4996574;28;20045;-54
2022/09/03 09:26:00;;;;;;;6.70;1.73;;;;;;;;;;5020546;28;20025;-51
2022/09/03 09:28:32;;;;;;;4.22;1.40;;;;;;;;;;5014940;28;20034;-52
2022/09/03 09:31:01;;;;;;;7.10;1.52;;;20.00;99.90;;;;;;5023027;28;20038;-51
2022/09/03 09:33:31;;;;;;;5.22;1.52;;;19.90;99.90;;;;;;5023266;28;20051;-54
2022/09/03 09:36:00;;;;;;;4.22;1.50;;;;;;;;;;5022552;28;20034;-53
2022/09/03 09:38:35;;;;;;;7.32;1.83;;;19.30;99.90;;;;;;5011108;28;20037;-54
2022/09/03 09:41:11;;;;;;;4.47;1.80;;;;;;;;;;5021723;28;20484;-51
2022/09/03 09:43:38;;;;;;;4.78;1.60;;;20.00;99.90;;;;;;5027191;28;20468;-53
2022/09/03 09:46:11;;;;;;;5.10;1.60;;;;;;;;;;5022948;28;20042;-52
2022/09/03 09:48:39;;;;;;;4.57;1.50;;;;;;;;;;5010123;28;20047;-54
2022/09/03 09:51:17;;;;;;;5.07;1.48;;;20.60;99.90;;;;;;5024444;28;20280;-54
2022/09/03 09:53:43;;;;;;;6.00;1.60;;;20.30;99.90;;;;;;5029655;28;20037;-54
2022/09/03 09:56:23;;;;;;;4.75;1.60;;;20.50;99.90;;;;;;5007484;28;20088;-54
2022/09/03 09:58:49;;;;;;;5.43;1.70;;;20.50;99.90;;;;;;5004742;28;20100;-53
2022/09/03 10:01:24;;;;;;;3.92;1.50;;;20.20;99.90;;;;;;5025964;28;20042;-55
2022/09/03 10:03:55;;;;;;;4.50;1.60;;;20.90;99.90;;;;;;5024032;28;20044;-54
2022/09/03 10:09:12;;;;;;;6.03;1.98;;;;;;;;;;5026091;28;20041;-54
2022/09/03 10:11:44;;;;;;;6.90;1.60;;;20.80;99.90;;;;;;5021322;28;20064;-49
2022/09/03 10:14:23;;;;;;;4.28;1.40;;;21.20;99.90;;;;;;5026979;28;20111;-54
2022/09/03 10:16:58;;;;;;;5.15;1.50;;;21.80;99.90;;;;;;5004386;28;20076;-54
2022/09/03 10:19:33;;;;;;;4.55;1.50;;;20.80;99.90;;;;;;5027521;28;20048;-54
2022/09/03 10:22:05;;;;;;;4.25;1.40;;;21.40;99.90;;;;;;5022378;28;20087;-54
2022/09/03 10:24:38;;;;;;;4.22;1.58;;;20.90;99.90;;;;;;5027020;28;20408;-54
2022/09/03 10:27:09;;;;;;;8.68;1.52;;;21.60;99.90;;;;;;5003210;28;20170;-55
2022/09/03 10:29:36;;;;;;;5.75;1.90;;;22.10;99.90;;;;;;5025895;28;20072;-54
2022/09/03 10:32:32;;;;;;;4.63;1.30;;;21.90;99.90;;;;;;5009265;22;20049;-83
2022/09/03 10:35:20;;;;;;;6.15;1.73;;;21.60;99.90;;;;;;4991190;28;20049;-85
2022/09/03 10:38:18;;;;;;;4.55;1.65;;;22.00;99.90;;;;;;5005428;28;20041;-85
2022/09/03 10:41:21;;;;;;;6.03;1.58;;;21.60;99.90;;;;;;5006630;28;20086;-85
2022/09/03 10:43:53;;;;;;;8.23;1.55;;;21.80;99.90;;;;;;5007481;28;20206;-85
2022/09/03 10:46:25;;;;;;;3.67;1.30;;;22.30;99.90;;;;;;5025992;28;20037;-85
2022/09/03 10:49:10;;;;;;;12.32;2.00;;;21.70;99.90;;;;;;5025161;28;20032;-87
2022/09/03 10:51:41;;;;;;;4.70;1.52;;;22.60;99.90;;;;;;5025211;28;20044;-84
2022/09/03 10:54:23;;;;;;;5.38;1.60;;;23.30;99.90;;;;;;5025084;28;20673;-85
2022/09/03 10:57:13;;;;;;;5.93;1.33;;;22.50;99.90;;;;;;5024498;28;20123;-84
2022/09/03 10:59:57;;;;;;;3.45;1.40;;;22.70;99.90;;;;;;5008724;28;20056;-85
2022/09/03 11:02:41;;;;;;;;;;;24.00;99.90;;;;;;5009925;28;20045;-85
2022/09/03 11:05:20;;;;;;;4.90;1.60;;;22.80;99.90;;;;;;5034264;28;19968;-85
2022/09/03 11:07:57;;;;;;;4.45;1.33;;;22.90;99.90;;;;;;5041571;28;20068;-85
2022/09/03 11:10:32;;;;;;;4.43;1.40;;;23.20;99.90;;;;;;5019958;28;20037;-85
2022/09/03 11:13:13;;;;;;;5.95;1.40;;;24.10;99.90;;;;;;5032997;28;20107;-85
2022/09/03 11:15:49;;;;;;;6.13;1.52;;;23.40;99.90;;;;;;5023687;28;20057;-84
2022/09/03 11:18:47;;;;;;;4.05;1.50;;;22.80;99.90;;;;;;5042446;28;20388;-84
2022/09/03 11:21:19;;;;;;;4.47;1.70;;;24.30;99.90;;;;;;5021811;28;20037;-85
2022/09/03 11:23:49;;;;;;;5.13;1.60;;;23.90;99.90;;;;;;5012947;28;20068;-85
2022/09/03 11:26:18;;;;;;;5.63;1.40;;;23.80;99.90;;;;;;5008264;28;20424;-84
2022/09/03 11:29:07;;;;;;;6.25;1.40;;;24.40;99.90;;;;;;5026612;28;20064;-85
2022/09/03 11:31:48;;;;;;;8.93;1.60;;;24.50;99.90;;;;;;5028701;28;20129;-85
2022/09/03 11:34:25;;;;;;;6.47;1.70;;;24.50;99.90;;;;;;5019385;28;20126;-85
2022/09/03 11:36:51;;;;;;;3.55;1.40;;;24.20;99.90;;;;;;5025007;28;20036;-84
2022/09/03 11:39:33;;;;;;;4.10;1.40;;;24.00;99.90;;;;;;5006078;28;20044;-85
2022/09/03 11:42:07;;;;;;;4.07;1.30;;;25.30;99.90;;;;;;5004180;28;20388;-85
2022/09/03 11:44:38;;;;;;;7.82;1.88;;;23.40;99.90;;;;;;5043545;28;20045;-85
2022/09/03 11:47:37;;;;;;;4.13;1.25;;;24.80;99.90;;;;;;5010945;28;20033;-85
2022/09/03 11:50:19;;;;;;;5.60;1.55;;;24.90;99.90;;;;;;5013959;28;20055;-85
2022/09/03 11:52:45;;;;;;;5.03;1.58;;;25.30;99.90;;;;;;5027257;28;20048;-85
2022/09/03 11:55:11;;;;;;;4.10;1.40;;;26.80;99.90;;;;;;5043987;28;20080;-86
2022/09/03 11:57:42;;;;;;;3.30;1.25;;;24.90;99.90;;;;;;5026677;28;20344;-84
2022/09/03 12:00:09;;;;;;;2.97;1.20;;;25.70;99.90;;;;;;5027854;28;20056;-86
2022/09/03 12:02:37;;;;;;;3.35;1.27;;;25.70;99.90;;;;;;5069110;28;20052;-85
2022/09/03 12:05:30;;;;;;;4.55;1.33;;;26.80;99.90;;;;;;5045428;28;20144;-85
2022/09/03 12:08:12;;;;;;;5.68;1.50;;;26.30;99.90;;;;;;5004290;28;20090;-86
2022/09/03 12:11:03;;;;;;;3.08;1.13;;;27.90;99.90;;;;;;5035524;28;20049;-84
2022/09/03 12:13:51;;;;;;;4.15;1.50;;;30.60;99.90;;;;;;4975705;28;20062;-86
2022/09/03 12:16:49;;;;;;;4.70;1.30;;;32.50;99.90;;;;;;5027032;28;20049;-85
2022/09/03 12:19:24;;;;;;;6.70;1.40;;;33.00;99.90;;;;;;4998833;28;20075;-86
2022/09/03 12:21:50;;;;;;;3.25;1.20;;;35.50;99.90;;;;;;5009738;28;20156;-86
2022/09/03 12:24:17;;;;;;;4.72;1.50;;;37.40;99.90;;;;;;5027238;28;20041;-86
2022/09/03 12:26:43;;;;;;;7.45;1.50;;;37.30;99.90;;;;;;5026339;28;20044;-86
2022/09/03 12:29:24;;;;;;;3.42;1.20;;;38.10;99.90;;;;;;5025234;28;20340;-85
2022/09/03 12:31:50;;;;;;;5.30;1.38;;;39.00;99.90;;;;;;5044351;28;20127;-86
2022/09/03 12:34:18;;;;;;;4.80;1.38;;;39.20;99.90;;;;;;5044100;28;20044;-85
2022/09/03 12:36:47;;;;;;;2.72;1.10;;;40.90;99.90;;;;;;5043705;28;20087;-87
2022/09/03 12:39:19;;;;;;;4.18;1.20;;;40.90;99.90;;;;;;5025062;28;20408;-86
2022/09/03 12:41:56;;;;;;;4.00;1.30;;;42.60;99.90;;;;;;5043606;28;20135;-84
2022/09/03 12:44:28;;;;;;;5.60;1.40;;;42.50;99.90;;;;;;5025895;28;20102;-85
2022/09/03 12:47:11;;;;;;;5.07;1.30;;;44.30;99.90;;;;;;5035083;28;20041;-84
2022/09/03 12:49:45;;;;;;;4.55;1.30;;;43.40;99.90;;;;;;5025420;28;20467;-84
2022/09/03 12:52:25;;;;;;;3.65;1.10;;;44.20;99.90;;;;;;5025471;28;20047;-84
2022/09/03 12:54:59;;;;;;;3.60;1.20;;;44.80;99.90;;;;;;5025647;28;20606;-85
2022/09/03 12:57:39;;;;;;;3.92;1.20;;;45.20;99.90;;;;;;5003468;28;20045;-85
2022/09/03 13:00:08;;;;;;;5.60;1.60;;;45.50;99.90;;;;;;5025370;28;20415;-86
2022/09/03 13:02:50;;;;;;;7.38;1.40;;;45.00;99.90;;;;;;5025108;28;20063;-85
2022/09/03 13:05:22;;;;;;;4.10;1.30;;;45.30;99.90;;;;;;5038221;28;20447;-86
2022/09/03 13:07:54;;;;;;;3.55;1.10;;;45.90;99.90;;;;;;5025011;28;20052;-86
2022/09/03 13:10:27;;;;;;;5.18;1.20;;;45.70;99.90;;;;;;5020953;28;20049;-86
2022/09/03 13:13:01;;;;;;;3.83;1.33;;;46.10;99.90;;;;;;5035700;28;20535;-86
2022/09/03 13:15:28;;;;;;;6.63;1.38;;;46.50;99.90;;;;;;5022482;28;20048;-86
2022/09/03 13:18:00;;;;;;;4.25;1.48;;;46.50;99.90;;;;;;5036095;28;20110;-85
2022/09/03 13:21:00;;;;;;;3.20;1.23;;;46.40;99.90;;;;;;5043539;28;20611;-86
2022/09/03 13:23:34;;;;;;;5.32;1.55;;;47.00;99.90;;;;;;5025183;28;20565;-87
2022/09/03 13:26:34;;;;;;;2.90;1.10;;;47.30;99.90;;;;;;5035942;28;20037;-85
2022/09/03 13:29:27;;;;;;;4.97;1.20;;;47.50;99.90;;;;;;5001552;28;20037;-86
2022/09/03 13:32:07;;;;;;;5.38;1.30;;;48.00;99.90;;;;;;5020155;28;20044;-85
2022/09/03 13:34:49;;;;;;;3.92;1.13;;;47.50;99.90;;;;;;5042461;28;20147;-87
2022/09/03 13:37:37;;;;;;;6.97;1.15;;;46.00;99.90;;;;;;5024525;28;20093;-85
2022/09/03 13:40:24;;;;;;;5.68;1.45;;;47.70;99.90;;;;;;5017971;28;20475;-85
2022/09/03 13:42:55;;;;;;;4.57;1.27;;;48.50;99.90;;;;;;5023661;28;20569;-85
2022/09/03 13:46:05;;;;;;;5.13;1.23;;;48.00;99.90;;;;;;5009830;28;20151;-84
2022/09/03 13:51:48;;;;;;;3.90;1.20;;;48.50;99.90;;;;;;4958448;28;20553;-83
2022/09/03 13:54:26;;;;;;;5.50;1.70;;;48.60;99.90;;;;;;5016045;28;20503;-86
2022/09/03 13:57:03;;;;;;;5.05;1.30;;;48.40;99.90;;;;;;5023626;28;20047;-84
2022/09/03 13:59:31;;;;;;;3.75;1.25;;;48.40;99.90;;;;;;5042487;28;20791;-85